sensor_id;sensor_type;location;lat;lon;timestamp;P1;durP1;ratioP1;P2;durP2;ratioP2
69878;SDS011;57161;43.136;24.706;2022-12-10T00:01:45;148.25;;;86.97;;
69878;SDS011;57161;43.136;24.706;2022-12-10T00:04:12;129.13;;;80.70;;
69878;SDS011;57161;43.136;24.706;2022-12-10T00:06:38;140.57;;;83.85;;
69878;SDS011;57161;43.136;24.706;2022-12-10T00:09:06;132.63;;;78.78;;
69878;SDS011;57161;43.136;24.706;2022-12-10T00:11:36;144.60;;;87.95;;
69878;SDS011;57161;43.136;24.706;2022-12-10T00:14:02;141.95;;;84.82;;
69878;SDS011;57161;43.136;24.706;2022-12-10T00:16:27;144.85;;;88.78;;
69878;SDS011;57161;43.136;24.706;2022-12-10T00:18:55;136.05;;;81.20;;
69878;SDS011;57161;43.136;24.706;2022-12-10T00:21:22;148.00;;;89.22;;
69878;SDS011;57161;43.136;24.706;2022-12-10T00:23:50;136.57;;;80.35;;
69878;SDS011;57161;43.136;24.706;2022-12-10T00:26:20;136.15;;;80.07;;
69878;SDS011;57161;43.136;24.706;2022-12-10T00:28:47;140.30;;;80.60;;
69878;SDS011;57161;43.136;24.706;2022-12-10T00:31:14;125.15;;;75.80;;
69878;SDS011;57161;43.136;24.706;2022-12-10T00:33:42;130.02;;;76.32;;
69878;SDS011;57161;43.136;24.706;2022-12-10T00:36:16;125.35;;;77.15;;
69878;SDS011;57161;43.136;24.706;2022-12-10T00:38:46;150.93;;;84.63;;
69878;SDS011;57161;43.136;24.706;2022-12-10T00:41:13;148.63;;;84.25;;
69878;SDS011;57161;43.136;24.706;2022-12-10T00:43:39;109.78;;;65.75;;
69878;SDS011;57161;43.136;24.706;2022-12-10T00:46:05;120.65;;;70.57;;
69878;SDS011;57161;43.136;24.706;2022-12-10T00:48:31;113.40;;;65.40;;
69878;SDS011;57161;43.136;24.706;2022-12-10T00:51:04;123.82;;;70.63;;
69878;SDS011;57161;43.136;24.706;2022-12-10T00:53:33;111.78;;;65.60;;
69878;SDS011;57161;43.136;24.706;2022-12-10T00:56:00;106.00;;;63.78;;
69878;SDS011;57161;43.136;24.706;2022-12-10T00:58:29;89.78;;;52.00;;
69878;SDS011;57161;43.136;24.706;2022-12-10T01:03:42;59.92;;;36.92;;
69878;SDS011;57161;43.136;24.706;2022-12-10T01:06:12;65.50;;;38.08;;
69878;SDS011;57161;43.136;24.706;2022-12-10T01:08:38;60.27;;;37.13;;
69878;SDS011;57161;43.136;24.706;2022-12-10T01:11:04;58.65;;;36.65;;
69878;SDS011;57161;43.136;24.706;2022-12-10T01:13:31;73.80;;;42.58;;
69878;SDS011;57161;43.136;24.706;2022-12-10T01:15:56;71.20;;;38.92;;
69878;SDS011;57161;43.136;24.706;2022-12-10T01:18:22;77.30;;;40.88;;
69878;SDS011;57161;43.136;24.706;2022-12-10T01:20:47;71.57;;;40.47;;
69878;SDS011;57161;43.136;24.706;2022-12-10T01:23:13;62.33;;;38.95;;
69878;SDS011;57161;43.136;24.706;2022-12-10T01:25:38;60.13;;;35.90;;
69878;SDS011;57161;43.136;24.706;2022-12-10T01:28:03;62.65;;;35.13;;
69878;SDS011;57161;43.136;24.706;2022-12-10T01:30:29;58.33;;;36.38;;
69878;SDS011;57161;43.136;24.706;2022-12-10T01:32:54;59.88;;;36.03;;
69878;SDS011;57161;43.136;24.706;2022-12-10T01:35:20;57.58;;;36.67;;
69878;SDS011;57161;43.136;24.706;2022-12-10T01:37:45;59.40;;;36.88;;
69878;SDS011;57161;43.136;24.706;2022-12-10T01:40:11;59.20;;;36.53;;
69878;SDS011;57161;43.136;24.706;2022-12-10T01:42:36;59.13;;;35.83;;
69878;SDS011;57161;43.136;24.706;2022-12-10T01:45:04;57.38;;;34.78;;
69878;SDS011;57161;43.136;24.706;2022-12-10T01:47:32;58.80;;;33.85;;
69878;SDS011;57161;43.136;24.706;2022-12-10T01:49:59;62.40;;;35.17;;
69878;SDS011;57161;43.136;24.706;2022-12-10T01:52:26;59.85;;;36.55;;
69878;SDS011;57161;43.136;24.706;2022-12-10T01:54:51;58.92;;;36.38;;
69878;SDS011;57161;43.136;24.706;2022-12-10T01:57:21;59.17;;;36.03;;
69878;SDS011;57161;43.136;24.706;2022-12-10T01:59:50;63.15;;;37.45;;
69878;SDS011;57161;43.136;24.706;2022-12-10T02:15:52;60.50;;;37.17;;
69878;SDS011;57161;43.136;24.706;2022-12-10T02:19:25;61.85;;;36.60;;
69878;SDS011;57161;43.136;24.706;2022-12-10T02:21:34;64.20;;;37.40;;
69878;SDS011;57161;43.136;24.706;2022-12-10T02:24:05;77.60;;;47.47;;
69878;SDS011;57161;43.136;24.706;2022-12-10T02:29:20;71.78;;;42.45;;
69878;SDS011;57161;43.136;24.706;2022-12-10T02:31:50;64.57;;;40.05;;
69878;SDS011;57161;43.136;24.706;2022-12-10T02:36:47;71.82;;;43.15;;
69878;SDS011;57161;43.136;24.706;2022-12-10T02:39:18;78.85;;;50.97;;
69878;SDS011;57161;43.136;24.706;2022-12-10T02:41:50;78.32;;;50.35;;
69878;SDS011;57161;43.136;24.706;2022-12-10T02:44:18;68.95;;;41.47;;
69878;SDS011;57161;43.136;24.706;2022-12-10T02:46:46;54.33;;;33.05;;
69878;SDS011;57161;43.136;24.706;2022-12-10T02:49:14;52.47;;;33.38;;
69878;SDS011;57161;43.136;24.706;2022-12-10T02:51:41;58.15;;;35.28;;
69878;SDS011;57161;43.136;24.706;2022-12-10T02:54:31;55.30;;;33.67;;
69878;SDS011;57161;43.136;24.706;2022-12-10T02:57:07;59.97;;;36.65;;
69878;SDS011;57161;43.136;24.706;2022-12-10T03:05:13;62.20;;;38.20;;
69878;SDS011;57161;43.136;24.706;2022-12-10T03:10:33;59.40;;;37.03;;
69878;SDS011;57161;43.136;24.706;2022-12-10T03:13:09;61.58;;;37.72;;
69878;SDS011;57161;43.136;24.706;2022-12-10T03:15:38;66.45;;;38.25;;
69878;SDS011;57161;43.136;24.706;2022-12-10T03:18:06;56.97;;;35.60;;
69878;SDS011;57161;43.136;24.706;2022-12-10T03:20:37;111.88;;;64.00;;
69878;SDS011;57161;43.136;24.706;2022-12-10T03:23:05;67.90;;;41.30;;
69878;SDS011;57161;43.136;24.706;2022-12-10T03:25:33;55.42;;;34.63;;
69878;SDS011;57161;43.136;24.706;2022-12-10T03:28:01;52.67;;;33.42;;
69878;SDS011;57161;43.136;24.706;2022-12-10T03:30:26;52.88;;;34.10;;
69878;SDS011;57161;43.136;24.706;2022-12-10T03:32:56;58.80;;;33.88;;
69878;SDS011;57161;43.136;24.706;2022-12-10T03:35:22;57.83;;;32.92;;
69878;SDS011;57161;43.136;24.706;2022-12-10T03:37:49;48.45;;;32.45;;
69878;SDS011;57161;43.136;24.706;2022-12-10T03:40:15;53.22;;;32.53;;
69878;SDS011;57161;43.136;24.706;2022-12-10T03:42:45;53.33;;;32.35;;
69878;SDS011;57161;43.136;24.706;2022-12-10T03:45:10;50.83;;;32.28;;
69878;SDS011;57161;43.136;24.706;2022-12-10T03:47:36;49.30;;;29.85;;
69878;SDS011;57161;43.136;24.706;2022-12-10T03:50:02;51.40;;;28.42;;
69878;SDS011;57161;43.136;24.706;2022-12-10T03:52:28;43.75;;;27.58;;
69878;SDS011;57161;43.136;24.706;2022-12-10T03:54:53;39.55;;;24.65;;
69878;SDS011;57161;43.136;24.706;2022-12-10T03:57:19;40.83;;;26.25;;
69878;SDS011;57161;43.136;24.706;2022-12-10T03:59:44;39.88;;;25.30;;
69878;SDS011;57161;43.136;24.706;2022-12-10T04:02:09;41.53;;;24.83;;
69878;SDS011;57161;43.136;24.706;2022-12-10T04:04:35;37.75;;;25.70;;
69878;SDS011;57161;43.136;24.706;2022-12-10T04:07:01;46.55;;;26.70;;
69878;SDS011;57161;43.136;24.706;2022-12-10T04:09:27;42.10;;;26.20;;
69878;SDS011;57161;43.136;24.706;2022-12-10T04:11:56;38.90;;;24.35;;
69878;SDS011;57161;43.136;24.706;2022-12-10T04:14:25;36.63;;;22.52;;
69878;SDS011;57161;43.136;24.706;2022-12-10T04:17:10;34.10;;;21.05;;
69878;SDS011;57161;43.136;24.706;2022-12-10T04:19:35;36.38;;;21.15;;
69878;SDS011;57161;43.136;24.706;2022-12-10T04:22:01;33.70;;;24.17;;
69878;SDS011;57161;43.136;24.706;2022-12-10T04:24:45;35.15;;;22.55;;
69878;SDS011;57161;43.136;24.706;2022-12-10T04:27:30;33.72;;;23.83;;
69878;SDS011;57161;43.136;24.706;2022-12-10T04:29:58;39.40;;;25.67;;
69878;SDS011;57161;43.136;24.706;2022-12-10T04:32:25;38.70;;;24.98;;
69878;SDS011;57161;43.136;24.706;2022-12-10T04:34:52;38.45;;;25.10;;
69878;SDS011;57161;43.136;24.706;2022-12-10T04:37:18;39.63;;;25.92;;
69878;SDS011;57161;43.136;24.706;2022-12-10T04:39:45;36.13;;;24.00;;
69878;SDS011;57161;43.136;24.706;2022-12-10T04:42:10;41.20;;;27.63;;
69878;SDS011;57161;43.136;24.706;2022-12-10T04:44:37;38.50;;;26.13;;
69878;SDS011;57161;43.136;24.706;2022-12-10T04:47:03;40.13;;;26.60;;
69878;SDS011;57161;43.136;24.706;2022-12-10T04:49:30;47.90;;;29.13;;
69878;SDS011;57161;43.136;24.706;2022-12-10T04:51:55;40.88;;;25.70;;
69878;SDS011;57161;43.136;24.706;2022-12-10T04:54:21;39.70;;;25.90;;
69878;SDS011;57161;43.136;24.706;2022-12-10T04:56:47;40.92;;;25.30;;
69878;SDS011;57161;43.136;24.706;2022-12-10T04:59:13;45.33;;;28.42;;
69878;SDS011;57161;43.136;24.706;2022-12-10T05:01:39;47.53;;;31.73;;
69878;SDS011;57161;43.136;24.706;2022-12-10T05:04:05;49.00;;;31.50;;
69878;SDS011;57161;43.136;24.706;2022-12-10T05:06:32;47.03;;;30.05;;
69878;SDS011;57161;43.136;24.706;2022-12-10T05:08:58;45.10;;;28.90;;
69878;SDS011;57161;43.136;24.706;2022-12-10T05:11:25;45.42;;;28.75;;
69878;SDS011;57161;43.136;24.706;2022-12-10T05:13:53;43.42;;;29.58;;
69878;SDS011;57161;43.136;24.706;2022-12-10T05:16:20;45.72;;;28.95;;
69878;SDS011;57161;43.136;24.706;2022-12-10T05:18:47;47.28;;;29.88;;
69878;SDS011;57161;43.136;24.706;2022-12-10T05:21:13;47.38;;;28.95;;
69878;SDS011;57161;43.136;24.706;2022-12-10T05:23:42;44.05;;;26.88;;
69878;SDS011;57161;43.136;24.706;2022-12-10T05:26:15;40.60;;;25.60;;
69878;SDS011;57161;43.136;24.706;2022-12-10T05:28:43;36.63;;;25.52;;
69878;SDS011;57161;43.136;24.706;2022-12-10T05:31:14;38.75;;;25.85;;
69878;SDS011;57161;43.136;24.706;2022-12-10T05:33:42;42.10;;;29.23;;
69878;SDS011;57161;43.136;24.706;2022-12-10T05:36:09;29.33;;;20.25;;
69878;SDS011;57161;43.136;24.706;2022-12-10T05:38:36;25.33;;;18.35;;
69878;SDS011;57161;43.136;24.706;2022-12-10T05:41:03;24.98;;;17.85;;
69878;SDS011;57161;43.136;24.706;2022-12-10T05:43:31;23.65;;;17.00;;
69878;SDS011;57161;43.136;24.706;2022-12-10T05:46:04;24.00;;;16.90;;
69878;SDS011;57161;43.136;24.706;2022-12-10T05:48:33;28.08;;;18.55;;
69878;SDS011;57161;43.136;24.706;2022-12-10T05:51:02;26.30;;;19.67;;
69878;SDS011;57161;43.136;24.706;2022-12-10T05:53:35;26.05;;;18.35;;
69878;SDS011;57161;43.136;24.706;2022-12-10T05:56:02;24.95;;;16.05;;
69878;SDS011;57161;43.136;24.706;2022-12-10T05:58:29;25.10;;;18.25;;
69878;SDS011;57161;43.136;24.706;2022-12-10T06:00:56;48.92;;;30.33;;
69878;SDS011;57161;43.136;24.706;2022-12-10T06:03:22;46.17;;;29.73;;
69878;SDS011;57161;43.136;24.706;2022-12-10T06:05:49;45.10;;;27.17;;
69878;SDS011;57161;43.136;24.706;2022-12-10T06:08:14;43.67;;;28.42;;
69878;SDS011;57161;43.136;24.706;2022-12-10T06:10:40;36.45;;;22.55;;
69878;SDS011;57161;43.136;24.706;2022-12-10T06:13:05;38.17;;;23.70;;
69878;SDS011;57161;43.136;24.706;2022-12-10T06:15:31;39.17;;;25.80;;
69878;SDS011;57161;43.136;24.706;2022-12-10T06:17:57;39.05;;;26.02;;
69878;SDS011;57161;43.136;24.706;2022-12-10T06:20:24;51.78;;;31.60;;
69878;SDS011;57161;43.136;24.706;2022-12-10T06:22:51;45.40;;;30.33;;
69878;SDS011;57161;43.136;24.706;2022-12-10T06:25:17;57.70;;;37.50;;
69878;SDS011;57161;43.136;24.706;2022-12-10T06:27:43;82.07;;;47.83;;
69878;SDS011;57161;43.136;24.706;2022-12-10T06:30:08;81.95;;;51.67;;
69878;SDS011;57161;43.136;24.706;2022-12-10T06:32:34;89.13;;;55.60;;
69878;SDS011;57161;43.136;24.706;2022-12-10T06:35:00;107.57;;;66.63;;
69878;SDS011;57161;43.136;24.706;2022-12-10T06:37:25;109.55;;;69.45;;
69878;SDS011;57161;43.136;24.706;2022-12-10T06:39:51;98.22;;;63.88;;
69878;SDS011;57161;43.136;24.706;2022-12-10T06:42:17;89.45;;;56.55;;
69878;SDS011;57161;43.136;24.706;2022-12-10T06:44:43;96.55;;;62.97;;
69878;SDS011;57161;43.136;24.706;2022-12-10T06:47:09;94.05;;;60.45;;
69878;SDS011;57161;43.136;24.706;2022-12-10T06:49:35;85.28;;;54.30;;
69878;SDS011;57161;43.136;24.706;2022-12-10T06:52:01;74.40;;;48.03;;
69878;SDS011;57161;43.136;24.706;2022-12-10T06:54:27;76.00;;;51.70;;
69878;SDS011;57161;43.136;24.706;2022-12-10T06:56:53;81.50;;;52.40;;
69878;SDS011;57161;43.136;24.706;2022-12-10T06:59:19;93.75;;;59.33;;
69878;SDS011;57161;43.136;24.706;2022-12-10T07:01:45;100.35;;;62.75;;
69878;SDS011;57161;43.136;24.706;2022-12-10T07:04:11;125.22;;;82.03;;
69878;SDS011;57161;43.136;24.706;2022-12-10T07:06:36;147.63;;;98.35;;
69878;SDS011;57161;43.136;24.706;2022-12-10T07:09:02;117.90;;;80.13;;
69878;SDS011;57161;43.136;24.706;2022-12-10T07:11:28;115.97;;;76.40;;
69878;SDS011;57161;43.136;24.706;2022-12-10T07:13:55;111.90;;;70.50;;
69878;SDS011;57161;43.136;24.706;2022-12-10T07:16:25;108.90;;;70.20;;
69878;SDS011;57161;43.136;24.706;2022-12-10T07:18:54;99.13;;;65.30;;
69878;SDS011;57161;43.136;24.706;2022-12-10T07:23:54;125.57;;;83.15;;
69878;SDS011;57161;43.136;24.706;2022-12-10T07:26:27;142.57;;;98.30;;
69878;SDS011;57161;43.136;24.706;2022-12-10T07:28:54;146.40;;;105.00;;
69878;SDS011;57161;43.136;24.706;2022-12-10T07:31:20;162.43;;;108.82;;
69878;SDS011;57161;43.136;24.706;2022-12-10T07:33:47;152.73;;;101.60;;
69878;SDS011;57161;43.136;24.706;2022-12-10T07:36:13;134.98;;;92.18;;
69878;SDS011;57161;43.136;24.706;2022-12-10T07:38:39;138.40;;;95.93;;
69878;SDS011;57161;43.136;24.706;2022-12-10T07:41:06;137.38;;;95.47;;
69878;SDS011;57161;43.136;24.706;2022-12-10T07:43:34;143.93;;;101.55;;
69878;SDS011;57161;43.136;24.706;2022-12-10T07:46:09;179.57;;;120.63;;
69878;SDS011;57161;43.136;24.706;2022-12-10T07:48:39;190.77;;;133.30;;
69878;SDS011;57161;43.136;24.706;2022-12-10T07:51:06;181.18;;;124.93;;
69878;SDS011;57161;43.136;24.706;2022-12-10T07:53:32;179.80;;;126.97;;
69878;SDS011;57161;43.136;24.706;2022-12-10T07:55:58;187.48;;;132.32;;
69878;SDS011;57161;43.136;24.706;2022-12-10T07:58:24;190.00;;;128.15;;
69878;SDS011;57161;43.136;24.706;2022-12-10T08:00:49;237.70;;;152.48;;
69878;SDS011;57161;43.136;24.706;2022-12-10T08:03:15;312.40;;;191.70;;
69878;SDS011;57161;43.136;24.706;2022-12-10T08:05:41;256.05;;;154.23;;
69878;SDS011;57161;43.136;24.706;2022-12-10T08:08:06;225.43;;;146.68;;
69878;SDS011;57161;43.136;24.706;2022-12-10T08:10:35;188.30;;;125.25;;
69878;SDS011;57161;43.136;24.706;2022-12-10T08:13:02;161.85;;;111.13;;
69878;SDS011;57161;43.136;24.706;2022-12-10T08:15:28;160.70;;;109.18;;
69878;SDS011;57161;43.136;24.706;2022-12-10T08:17:54;147.88;;;102.18;;
69878;SDS011;57161;43.136;24.706;2022-12-10T08:20:22;119.13;;;83.78;;
69878;SDS011;57161;43.136;24.706;2022-12-10T08:22:49;134.13;;;94.18;;
69878;SDS011;57161;43.136;24.706;2022-12-10T08:25:14;110.32;;;79.47;;
69878;SDS011;57161;43.136;24.706;2022-12-10T08:27:40;105.80;;;73.25;;
69878;SDS011;57161;43.136;24.706;2022-12-10T08:30:06;107.57;;;75.78;;
69878;SDS011;57161;43.136;24.706;2022-12-10T08:32:32;92.50;;;70.38;;
69878;SDS011;57161;43.136;24.706;2022-12-10T08:34:57;112.07;;;82.82;;
69878;SDS011;57161;43.136;24.706;2022-12-10T08:37:22;184.98;;;116.93;;
69878;SDS011;57161;43.136;24.706;2022-12-10T08:39:48;142.40;;;97.95;;
69878;SDS011;57161;43.136;24.706;2022-12-10T08:42:14;142.35;;;99.43;;
69878;SDS011;57161;43.136;24.706;2022-12-10T08:44:40;139.25;;;102.30;;
69878;SDS011;57161;43.136;24.706;2022-12-10T08:47:05;122.05;;;85.00;;
69878;SDS011;57161;43.136;24.706;2022-12-10T08:49:30;124.15;;;87.97;;
69878;SDS011;57161;43.136;24.706;2022-12-10T08:51:56;131.02;;;98.55;;
69878;SDS011;57161;43.136;24.706;2022-12-10T08:54:25;135.15;;;99.63;;
69878;SDS011;57161;43.136;24.706;2022-12-10T08:57:00;124.78;;;89.10;;
69878;SDS011;57161;43.136;24.706;2022-12-10T08:59:26;129.63;;;90.93;;
69878;SDS011;57161;43.136;24.706;2022-12-10T09:01:52;151.68;;;103.82;;
69878;SDS011;57161;43.136;24.706;2022-12-10T09:04:17;134.80;;;95.20;;
69878;SDS011;57161;43.136;24.706;2022-12-10T09:06:43;136.95;;;100.30;;
69878;SDS011;57161;43.136;24.706;2022-12-10T09:09:08;146.13;;;102.78;;
69878;SDS011;57161;43.136;24.706;2022-12-10T09:11:34;139.98;;;101.05;;
69878;SDS011;57161;43.136;24.706;2022-12-10T09:14:00;142.52;;;103.90;;
69878;SDS011;57161;43.136;24.706;2022-12-10T09:16:30;153.73;;;112.50;;
69878;SDS011;57161;43.136;24.706;2022-12-10T09:18:58;212.82;;;160.57;;
69878;SDS011;57161;43.136;24.706;2022-12-10T09:21:27;225.13;;;153.07;;
69878;SDS011;57161;43.136;24.706;2022-12-10T09:24:01;72.50;;;48.65;;
69878;SDS011;57161;43.136;24.706;2022-12-10T09:26:27;31.67;;;19.77;;
69878;SDS011;57161;43.136;24.706;2022-12-10T09:28:53;28.45;;;17.30;;
69878;SDS011;57161;43.136;24.706;2022-12-10T09:31:19;21.25;;;12.02;;
69878;SDS011;57161;43.136;24.706;2022-12-10T09:33:45;12.55;;;6.72;;
69878;SDS011;57161;43.136;24.706;2022-12-10T09:36:13;14.88;;;6.03;;
69878;SDS011;57161;43.136;24.706;2022-12-10T09:38:40;11.73;;;7.50;;
69878;SDS011;57161;43.136;24.706;2022-12-10T09:43:52;10.82;;;6.70;;
69878;SDS011;57161;43.136;24.706;2022-12-10T09:51:59;9.15;;;4.45;;
69878;SDS011;57161;43.136;24.706;2022-12-10T09:54:32;8.77;;;3.85;;
69878;SDS011;57161;43.136;24.706;2022-12-10T09:57:02;10.60;;;5.53;;
69878;SDS011;57161;43.136;24.706;2022-12-10T09:59:50;6.03;;;4.22;;
69878;SDS011;57161;43.136;24.706;2022-12-10T10:02:24;6.10;;;3.42;;
69878;SDS011;57161;43.136;24.706;2022-12-10T10:04:54;7.90;;;4.00;;
69878;SDS011;57161;43.136;24.706;2022-12-10T10:07:29;10.07;;;6.18;;
69878;SDS011;57161;43.136;24.706;2022-12-10T10:09:58;9.07;;;5.82;;
69878;SDS011;57161;43.136;24.706;2022-12-10T10:12:27;7.47;;;3.40;;
69878;SDS011;57161;43.136;24.706;2022-12-10T10:14:53;6.53;;;3.38;;
69878;SDS011;57161;43.136;24.706;2022-12-10T10:17:20;3.72;;;2.30;;
69878;SDS011;57161;43.136;24.706;2022-12-10T10:19:52;5.03;;;2.90;;
69878;SDS011;57161;43.136;24.706;2022-12-10T10:22:18;4.97;;;3.10;;
69878;SDS011;57161;43.136;24.706;2022-12-10T10:24:44;7.10;;;3.35;;
69878;SDS011;57161;43.136;24.706;2022-12-10T10:27:17;4.18;;;2.72;;
69878;SDS011;57161;43.136;24.706;2022-12-10T10:29:50;3.28;;;2.15;;
69878;SDS011;57161;43.136;24.706;2022-12-10T10:32:18;5.40;;;2.50;;
69878;SDS011;57161;43.136;24.706;2022-12-10T10:34:45;7.10;;;2.92;;
69878;SDS011;57161;43.136;24.706;2022-12-10T10:37:19;7.55;;;2.80;;
69878;SDS011;57161;43.136;24.706;2022-12-10T10:39:50;3.53;;;1.70;;
69878;SDS011;57161;43.136;24.706;2022-12-10T10:42:25;4.47;;;1.80;;
69878;SDS011;57161;43.136;24.706;2022-12-10T10:44:59;3.55;;;2.05;;
69878;SDS011;57161;43.136;24.706;2022-12-10T10:47:34;4.35;;;1.88;;
69878;SDS011;57161;43.136;24.706;2022-12-10T10:50:02;3.13;;;1.80;;
69878;SDS011;57161;43.136;24.706;2022-12-10T10:52:30;3.22;;;1.80;;
69878;SDS011;57161;43.136;24.706;2022-12-10T10:55:02;6.32;;;2.03;;
69878;SDS011;57161;43.136;24.706;2022-12-10T10:57:34;3.50;;;2.08;;
69878;SDS011;57161;43.136;24.706;2022-12-10T11:00:17;3.28;;;2.00;;
69878;SDS011;57161;43.136;24.706;2022-12-10T11:02:45;4.78;;;2.25;;
69878;SDS011;57161;43.136;24.706;2022-12-10T11:05:16;8.88;;;6.70;;
69878;SDS011;57161;43.136;24.706;2022-12-10T11:07:42;5.30;;;3.40;;
69878;SDS011;57161;43.136;24.706;2022-12-10T11:10:18;53.60;;;26.67;;
69878;SDS011;57161;43.136;24.706;2022-12-10T11:12:56;55.80;;;32.08;;
69878;SDS011;57161;43.136;24.706;2022-12-10T11:15:36;79.43;;;55.65;;
69878;SDS011;57161;43.136;24.706;2022-12-10T11:35:40;8.60;;;4.85;;
69878;SDS011;57161;43.136;24.706;2022-12-10T11:41:15;10.32;;;5.80;;
69878;SDS011;57161;43.136;24.706;2022-12-10T11:43:45;9.43;;;5.13;;
69878;SDS011;57161;43.136;24.706;2022-12-10T11:55:02;10.02;;;6.88;;
69878;SDS011;57161;43.136;24.706;2022-12-10T12:08:09;53.95;;;35.75;;
69878;SDS011;57161;43.136;24.706;2022-12-10T12:13:57;29.02;;;18.45;;
69878;SDS011;57161;43.136;24.706;2022-12-10T12:16:35;47.42;;;29.15;;
69878;SDS011;57161;43.136;24.706;2022-12-10T12:19:11;45.33;;;30.63;;
69878;SDS011;57161;43.136;24.706;2022-12-10T12:21:42;39.17;;;26.33;;
69878;SDS011;57161;43.136;24.706;2022-12-10T12:27:13;29.90;;;20.67;;
69878;SDS011;57161;43.136;24.706;2022-12-10T12:30:10;20.40;;;14.85;;
69878;SDS011;57161;43.136;24.706;2022-12-10T12:32:49;12.38;;;7.65;;
69878;SDS011;57161;43.136;24.706;2022-12-10T12:35:20;21.35;;;14.93;;
69878;SDS011;57161;43.136;24.706;2022-12-10T12:40:50;15.75;;;10.82;;
69878;SDS011;57161;43.136;24.706;2022-12-10T12:45:48;18.63;;;11.27;;
69878;SDS011;57161;43.136;24.706;2022-12-10T12:48:24;16.08;;;11.77;;
69878;SDS011;57161;43.136;24.706;2022-12-10T12:51:36;41.88;;;27.10;;
69878;SDS011;57161;43.136;24.706;2022-12-10T12:54:05;35.42;;;26.05;;
69878;SDS011;57161;43.136;24.706;2022-12-10T13:02:39;63.55;;;43.33;;
69878;SDS011;57161;43.136;24.706;2022-12-10T13:05:38;17.23;;;12.55;;
69878;SDS011;57161;43.136;24.706;2022-12-10T13:11:44;25.60;;;18.10;;
69878;SDS011;57161;43.136;24.706;2022-12-10T13:13:38;29.40;;;21.30;;
69878;SDS011;57161;43.136;24.706;2022-12-10T13:32:20;45.75;;;29.10;;
69878;SDS011;57161;43.136;24.706;2022-12-10T13:37:27;53.40;;;35.90;;
69878;SDS011;57161;43.136;24.706;2022-12-10T13:40:00;96.90;;;53.72;;
69878;SDS011;57161;43.136;24.706;2022-12-10T13:42:38;25.35;;;16.50;;
69878;SDS011;57161;43.136;24.706;2022-12-10T13:47:52;35.33;;;20.10;;
69878;SDS011;57161;43.136;24.706;2022-12-10T13:55:46;71.82;;;43.10;;
69878;SDS011;57161;43.136;24.706;2022-12-10T14:01:40;52.30;;;33.20;;
69878;SDS011;57161;43.136;24.706;2022-12-10T14:06:54;57.20;;;38.40;;
69878;SDS011;57161;43.136;24.706;2022-12-10T14:09:25;58.60;;;39.65;;
69878;SDS011;57161;43.136;24.706;2022-12-10T14:11:56;61.28;;;35.97;;
69878;SDS011;57161;43.136;24.706;2022-12-10T14:16:59;62.53;;;38.97;;
69878;SDS011;57161;43.136;24.706;2022-12-10T14:19:29;58.53;;;40.55;;
69878;SDS011;57161;43.136;24.706;2022-12-10T14:21:54;104.32;;;70.93;;
69878;SDS011;57161;43.136;24.706;2022-12-10T14:24:32;105.70;;;56.20;;
69878;SDS011;57161;43.136;24.706;2022-12-10T14:27:19;71.15;;;40.38;;
69878;SDS011;57161;43.136;24.706;2022-12-10T14:29:52;90.40;;;55.25;;
69878;SDS011;57161;43.136;24.706;2022-12-10T14:32:34;93.55;;;54.70;;
69878;SDS011;57161;43.136;24.706;2022-12-10T14:35:21;97.38;;;55.92;;
69878;SDS011;57161;43.136;24.706;2022-12-10T14:37:49;86.43;;;51.13;;
69878;SDS011;57161;43.136;24.706;2022-12-10T14:40:21;70.80;;;39.25;;
69878;SDS011;57161;43.136;24.706;2022-12-10T14:42:50;80.03;;;45.22;;
69878;SDS011;57161;43.136;24.706;2022-12-10T14:45:19;73.32;;;41.75;;
69878;SDS011;57161;43.136;24.706;2022-12-10T14:47:48;69.65;;;38.20;;
69878;SDS011;57161;43.136;24.706;2022-12-10T14:50:14;153.38;;;67.53;;
69878;SDS011;57161;43.136;24.706;2022-12-10T14:52:42;126.55;;;55.63;;
69878;SDS011;57161;43.136;24.706;2022-12-10T14:55:13;97.97;;;52.80;;
69878;SDS011;57161;43.136;24.706;2022-12-10T14:57:42;107.10;;;53.92;;
69878;SDS011;57161;43.136;24.706;2022-12-10T15:02:42;342.63;;;140.18;;
69878;SDS011;57161;43.136;24.706;2022-12-10T15:05:13;229.68;;;98.22;;
69878;SDS011;57161;43.136;24.706;2022-12-10T15:07:44;209.55;;;93.85;;
69878;SDS011;57161;43.136;24.706;2022-12-10T15:10:18;166.93;;;80.65;;
69878;SDS011;57161;43.136;24.706;2022-12-10T15:12:49;149.80;;;71.53;;
69878;SDS011;57161;43.136;24.706;2022-12-10T15:15:24;187.68;;;79.40;;
69878;SDS011;57161;43.136;24.706;2022-12-10T15:23:08;141.10;;;64.43;;
69878;SDS011;57161;43.136;24.706;2022-12-10T15:25:41;118.05;;;52.88;;
69878;SDS011;57161;43.136;24.706;2022-12-10T15:28:21;98.80;;;50.10;;
69878;SDS011;57161;43.136;24.706;2022-12-10T15:33:52;133.35;;;61.85;;
69878;SDS011;57161;43.136;24.706;2022-12-10T15:41:48;194.52;;;90.30;;
69878;SDS011;57161;43.136;24.706;2022-12-10T15:44:26;165.45;;;78.63;;
69878;SDS011;57161;43.136;24.706;2022-12-10T15:47:17;86.85;;;46.88;;
69878;SDS011;57161;43.136;24.706;2022-12-10T15:49:45;137.27;;;63.15;;
69878;SDS011;57161;43.136;24.706;2022-12-10T15:52:12;78.82;;;42.30;;
69878;SDS011;57161;43.136;24.706;2022-12-10T15:54:40;71.25;;;44.72;;
69878;SDS011;57161;43.136;24.706;2022-12-10T15:57:20;68.72;;;42.78;;
69878;SDS011;57161;43.136;24.706;2022-12-10T15:59:48;57.40;;;38.08;;
69878;SDS011;57161;43.136;24.706;2022-12-10T16:05:02;56.72;;;38.30;;
69878;SDS011;57161;43.136;24.706;2022-12-10T16:07:34;63.83;;;40.92;;
69878;SDS011;57161;43.136;24.706;2022-12-10T16:10:00;70.00;;;41.47;;
69878;SDS011;57161;43.136;24.706;2022-12-10T16:12:25;65.00;;;42.75;;
69878;SDS011;57161;43.136;24.706;2022-12-10T16:14:52;63.95;;;46.40;;
69878;SDS011;57161;43.136;24.706;2022-12-10T16:17:25;62.53;;;43.13;;
69878;SDS011;57161;43.136;24.706;2022-12-10T16:19:52;57.35;;;38.55;;
69878;SDS011;57161;43.136;24.706;2022-12-10T16:22:21;59.33;;;40.15;;
69878;SDS011;57161;43.136;24.706;2022-12-10T16:24:47;72.53;;;42.65;;
69878;SDS011;57161;43.136;24.706;2022-12-10T16:27:13;66.43;;;41.67;;
69878;SDS011;57161;43.136;24.706;2022-12-10T16:29:40;76.22;;;43.08;;
69878;SDS011;57161;43.136;24.706;2022-12-10T16:32:08;74.22;;;45.65;;
69878;SDS011;57161;43.136;24.706;2022-12-10T16:34:34;79.13;;;53.05;;
69878;SDS011;57161;43.136;24.706;2022-12-10T16:37:03;70.97;;;45.03;;
69878;SDS011;57161;43.136;24.706;2022-12-10T16:39:29;75.30;;;48.05;;
69878;SDS011;57161;43.136;24.706;2022-12-10T16:41:54;80.75;;;49.17;;
69878;SDS011;57161;43.136;24.706;2022-12-10T16:44:20;80.85;;;48.88;;
69878;SDS011;57161;43.136;24.706;2022-12-10T16:46:46;84.00;;;51.33;;
69878;SDS011;57161;43.136;24.706;2022-12-10T16:49:12;76.47;;;47.13;;
69878;SDS011;57161;43.136;24.706;2022-12-10T16:51:37;55.97;;;36.20;;
69878;SDS011;57161;43.136;24.706;2022-12-10T16:54:03;62.05;;;40.30;;